Terminal Aerodrome Forecast
Issued by NWS

Home | Current Version | Previous Version | Text Only | Print | Product List | Glossary On
Versions: 1 2 3 4 5 6 7 8 9 10 11 12 13
000
FTUS45 KABQ 010540
TAFSAF
TAF
KSAF 010540Z 0106/0206 35008KT P6SM VCSH FEW070 BKN100
      TEMPO 0106/0108 VRB13G21KT SCT060 OVC090
     FM010800 36007KT P6SM BKN120
     FM012130 25008KT P6SM VCSH SCT090 BKN120
     FM020500 35007KT P6SM SCT090 BKN140=

USA.gov is the U.S. government's official web portal to all federal, state and local government web resources and services.